Terminal Aerodrome Forecast
Issued by NWS Wilmington, OH

Current Version | Previous Version | Text Only | Print | Product List | Glossary Off
Versions: 1 2 3 4 5 6 7 8 9 10 11 12 13

000
FTUS41 KILN 262300
TAFDAY
TAF
KDAY 262340Z 2700/2724 35004KT P6SM -SHRA BKN050 BKN250
     FM270100 18004KT P6SM BKN050
     FM271300 33006KT P6SM SCT040 BKN100
     FM272300 01005KT P6SM SCT100=

USA.gov is the U.S. government's official web portal to all federal, state and local government web resources and services.